createdAt,value
2023-02-26T00:03:16.423Z,98151.44
2023-02-26T00:08:24.833Z,98155.22
2023-02-26T00:13:30.460Z,98157.38
2023-02-26T00:18:36.118Z,98157.25
2023-02-26T00:23:44.667Z,98165.34
2023-02-26T00:28:50.675Z,98176.53
2023-02-26T00:33:57.536Z,98179.66
2023-02-26T00:39:14.565Z,98181.88
2023-02-26T00:44:20.215Z,98181.00
2023-02-26T00:49:32.164Z,98190.41
2023-02-26T00:54:39.590Z,98194.81
2023-02-26T00:59:44.461Z,98197.19
2023-02-26T01:04:49.926Z,98190.59
2023-02-26T01:09:58.234Z,98204.28
2023-02-26T01:15:03.682Z,98208.00
2023-02-26T01:20:15.756Z,98210.72
2023-02-26T01:25:30.087Z,98213.63
2023-02-26T01:30:35.729Z,98218.91
2023-02-26T01:35:45.695Z,98224.22
2023-02-26T01:41:26.174Z,98229.28
2023-02-26T01:46:39.817Z,98223.25
2023-02-26T01:51:48.398Z,98244.28
2023-02-26T01:56:58.688Z,98244.91
2023-02-26T02:02:15.080Z,98243.94
2023-02-26T02:07:21.761Z,98256.03
2023-02-26T02:12:37.361Z,98263.53
2023-02-26T02:17:53.990Z,98267.41
2023-02-26T02:23:15.750Z,98276.09
2023-02-26T02:28:34.391Z,98284.47
2023-02-26T02:33:48.522Z,98290.22
2023-02-26T02:38:59.185Z,98301.09
2023-02-26T02:44:07.876Z,98298.00
2023-02-26T02:49:25.145Z,98304.81
2023-02-26T02:54:37.577Z,98312.25
2023-02-26T02:59:47.286Z,98328.38
2023-02-26T03:04:55.419Z,98335.13
2023-02-26T03:10:00.676Z,98345.00
2023-02-26T03:15:06.275Z,98340.69
2023-02-26T03:20:24.141Z,98350.22
2023-02-26T03:25:32.442Z,98356.72
2023-02-26T03:30:42.222Z,98370.25
2023-02-26T03:35:58.266Z,98375.31
2023-02-26T03:41:07.959Z,98381.03
2023-02-26T03:46:18.856Z,98389.56
2023-02-26T03:51:29.816Z,98405.81
2023-02-26T03:56:52.575Z,98420.50
2023-02-26T04:02:37.399Z,98428.59
2023-02-26T04:07:53.027Z,98430.66
2023-02-26T04:13:02.324Z,98429.72
2023-02-26T04:18:07.825Z,98445.06
2023-02-26T04:23:15.754Z,98444.19
2023-02-26T04:28:22.488Z,98449.19
2023-02-26T04:33:28.028Z,98461.22
2023-02-26T04:38:36.098Z,98461.91
2023-02-26T04:43:42.484Z,98477.63
2023-02-26T04:49:02.542Z,98481.34
2023-02-26T04:54:10.865Z,98480.44
2023-02-26T04:59:16.245Z,98493.09
2023-02-26T05:04:21.496Z,98502.28
2023-02-26T05:09:33.860Z,98499.59
2023-02-26T05:14:38.738Z,98519.16
2023-02-26T05:19:43.718Z,98521.00
2023-02-26T05:24:51.566Z,98526.38
2023-02-26T05:29:56.531Z,98531.69
2023-02-26T05:35:02.284Z,98541.91
2023-02-26T05:40:12.697Z,98550.00
2023-02-26T05:45:17.724Z,98566.34
2023-02-26T05:50:22.881Z,98565.13
2023-02-26T05:55:30.526Z,98580.38
2023-02-26T06:00:35.445Z,98580.28
2023-02-26T06:05:40.538Z,98599.94
2023-02-26T06:10:48.082Z,98603.50
2023-02-26T06:15:54.495Z,98612.47
2023-02-26T06:20:59.739Z,98612.47
2023-02-26T06:26:08.224Z,98623.03
2023-02-26T06:31:13.147Z,98634.50
2023-02-26T06:36:18.137Z,98653.59
2023-02-26T06:41:25.993Z,98663.78
2023-02-26T06:46:30.988Z,98654.22
2023-02-26T06:51:37.742Z,98664.22
2023-02-26T06:56:45.488Z,98677.59
2023-02-26T07:01:51.534Z,98678.16
2023-02-26T07:06:56.912Z,98691.72
2023-02-26T07:12:04.427Z,98704.53
2023-02-26T07:17:09.693Z,98712.31
2023-02-26T07:22:15.103Z,98719.53
2023-02-26T07:27:22.692Z,98716.81
2023-02-26T07:32:27.627Z,98729.81
2023-02-26T07:37:32.523Z,98734.34
2023-02-26T07:42:40.038Z,98740.09
2023-02-26T07:47:44.945Z,98746.16
2023-02-26T07:52:52.510Z,98753.59
2023-02-26T07:58:00.397Z,98764.22
2023-02-26T08:03:05.312Z,98770.59
2023-02-26T08:08:10.270Z,98773.63
2023-02-26T08:13:18.042Z,98791.91
2023-02-26T08:18:23.383Z,98798.84
2023-02-26T08:23:29.033Z,98802.91
2023-02-26T08:28:38.015Z,98806.94
2023-02-26T08:33:43.578Z,98802.91
2023-02-26T08:38:48.522Z,98809.09
2023-02-26T08:43:58.301Z,98822.53
2023-02-26T08:49:03.413Z,98831.56
2023-02-26T08:54:09.114Z,98842.50
2023-02-26T08:59:19.209Z,98855.25
2023-02-26T09:04:24.169Z,98859.22
2023-02-26T09:09:29.327Z,98865.47
2023-02-26T09:14:36.861Z,98884.59
2023-02-26T09:19:41.805Z,98884.47
2023-02-26T09:24:46.775Z,98898.56
2023-02-26T09:29:54.214Z,98896.53
2023-02-26T09:34:59.210Z,98911.22
2023-02-26T09:40:04.120Z,98927.91
2023-02-26T09:45:20.751Z,98927.75
2023-02-26T09:50:31.553Z,98921.09
2023-02-26T09:55:43.719Z,98930.44
2023-02-26T10:00:59.755Z,98937.13
2023-02-26T10:06:20.238Z,98940.50
2023-02-26T10:11:33.851Z,98961.50
2023-02-26T10:16:50.173Z,98969.59
2023-02-26T10:22:00.529Z,98979.63
2023-02-26T10:27:12.350Z,98995.22
2023-02-26T10:32:29.347Z,98992.88
2023-02-26T10:37:47.059Z,98994.31
2023-02-26T10:42:57.106Z,99005.66
2023-02-26T10:48:17.814Z,99001.88
2023-02-26T10:53:24.352Z,99015.13
2023-02-26T10:58:29.897Z,99014.72
2023-02-26T11:03:41.920Z,99019.53
2023-02-26T11:08:49.344Z,99022.34
2023-02-26T11:13:56.053Z,99021.44
2023-02-26T11:19:04.851Z,99025.63
2023-02-26T11:24:14.724Z,99029.34
2023-02-26T11:29:23.484Z,99032.00
2023-02-26T11:34:35.967Z,99036.53
2023-02-26T11:39:42.125Z,99042.25
2023-02-26T11:44:50.541Z,99040.41
2023-02-26T11:50:04.707Z,99044.47
2023-02-26T11:55:30.427Z,99043.91
2023-02-26T12:00:40.503Z,99048.94
2023-02-26T12:05:48.598Z,99031.66
2023-02-26T12:11:07.270Z,99043.88
2023-02-26T12:16:22.896Z,99035.84
2023-02-26T12:21:49.088Z,99049.28
2023-02-26T12:27:01.367Z,99056.31
2023-02-26T12:32:29.609Z,99055.59
2023-02-26T12:37:53.090Z,99054.66
2023-02-26T12:43:04.977Z,99080.75
2023-02-26T12:48:42.728Z,99076.06
2023-02-26T12:54:06.805Z,99077.66
2023-02-26T12:59:27.790Z,99081.53
2023-02-26T13:04:45.905Z,99079.88
2023-02-26T13:10:04.310Z,99079.00
2023-02-26T13:15:28.540Z,99081.69
2023-02-26T13:20:36.185Z,99088.44
2023-02-26T13:25:51.149Z,99103.63
2023-02-26T13:31:02.654Z,99130.59
2023-02-26T13:36:11.589Z,99130.25
2023-02-26T13:41:30.636Z,99122.97
2023-02-26T13:46:50.890Z,99120.81
2023-02-26T13:51:57.708Z,99120.41
2023-02-26T13:57:37.046Z,99105.66
2023-02-26T14:02:51.256Z,99113.38
2023-02-26T14:08:11.171Z,99118.63
2023-02-26T14:13:26.337Z,99121.22
2023-02-26T14:18:38.180Z,99112.44
2023-02-26T14:23:45.200Z,99108.88
2023-02-26T14:29:10.399Z,99118.00
2023-02-26T14:34:18.281Z,99120.88
2023-02-26T14:39:34.931Z,99141.69
2023-02-26T14:44:50.666Z,99179.59
2023-02-26T14:50:00.527Z,99173.34
2023-02-26T14:55:33.541Z,99159.09
2023-02-26T15:00:49.739Z,99166.84
2023-02-26T15:06:11.195Z,99164.84
2023-02-26T15:11:42.137Z,99158.69
2023-02-26T15:17:03.466Z,99162.97
2023-02-26T15:22:26.033Z,99163.38
2023-02-26T15:27:36.729Z,99167.13
2023-02-26T15:32:49.428Z,99173.59
2023-02-26T15:37:57.849Z,99177.81
2023-02-26T15:43:04.968Z,99180.72
2023-02-26T15:48:17.696Z,99186.06
2023-02-26T15:53:30.488Z,99194.38
2023-02-26T15:58:43.152Z,99196.28
2023-02-26T16:03:53.647Z,99198.50
2023-02-26T16:08:58.645Z,99199.09
2023-02-26T16:14:07.698Z,99211.25
2023-02-26T16:19:17.552Z,99211.13
2023-02-26T16:24:27.116Z,99211.22
2023-02-26T16:29:35.854Z,99217.72
2023-02-26T16:34:52.741Z,99219.72
2023-02-26T16:40:10.709Z,99224.50
2023-02-26T16:45:25.822Z,99238.31
2023-02-26T16:50:37.251Z,99241.50
2023-02-26T16:55:43.041Z,99246.16
2023-02-26T17:00:50.110Z,99259.41
2023-02-26T17:06:03.423Z,99263.59
2023-02-26T17:11:11.739Z,99273.97
2023-02-26T17:16:22.047Z,99292.56
2023-02-26T17:21:29.968Z,99306.81
2023-02-26T17:26:35.078Z,99305.75
2023-02-26T17:31:43.740Z,99320.28
2023-02-26T17:36:52.006Z,99313.66
2023-02-26T17:41:56.978Z,99321.25
2023-02-26T17:47:02.331Z,99333.75
2023-02-26T17:52:11.885Z,99350.34
2023-02-26T17:57:20.368Z,99360.28
2023-02-26T18:02:27.909Z,99364.69
2023-02-26T18:07:36.408Z,99367.53
2023-02-26T18:12:41.380Z,99372.44
2023-02-26T18:17:47.818Z,99372.75
2023-02-26T18:22:58.787Z,99385.94
2023-02-26T18:28:05.240Z,99388.97
2023-02-26T18:33:10.382Z,99398.59
2023-02-26T18:38:19.799Z,99399.16
2023-02-26T18:43:27.486Z,99409.34
2023-02-26T18:48:32.911Z,99406.53
2023-02-26T18:53:42.207Z,99417.50
2023-02-26T18:58:48.023Z,99423.38
2023-02-26T19:03:54.791Z,99429.13
2023-02-26T19:09:04.565Z,99436.56
2023-02-26T19:14:13.005Z,99441.88
2023-02-26T19:19:21.421Z,99443.72
2023-02-26T19:24:33.586Z,99450.53
2023-02-26T19:29:42.407Z,99454.22
2023-02-26T19:34:49.579Z,99458.22
2023-02-26T19:40:03.201Z,99469.56
2023-02-26T19:45:10.331Z,99469.88
2023-02-26T19:50:19.372Z,99483.97
2023-02-26T19:55:27.935Z,99484.69
2023-02-26T20:00:33.587Z,99491.69
2023-02-26T20:05:41.492Z,99503.84
2023-02-26T20:10:53.765Z,99508.63
2023-02-26T20:16:00.705Z,99512.81
2023-02-26T20:21:09.340Z,99525.19
2023-02-26T20:26:19.370Z,99530.06
2023-02-26T20:31:25.522Z,99534.16
2023-02-26T20:36:32.300Z,99541.50
2023-02-26T20:41:41.138Z,99537.13
2023-02-26T20:46:46.910Z,99548.84
2023-02-26T20:51:52.854Z,99544.03
2023-02-26T20:57:03.534Z,99547.16
2023-02-26T21:02:08.902Z,99559.03
2023-02-26T21:07:22.060Z,99559.16
2023-02-26T21:12:31.842Z,99563.00
2023-02-26T21:17:36.950Z,99566.06
2023-02-26T21:22:44.370Z,99569.88
2023-02-26T21:27:52.570Z,99575.41
2023-02-26T21:32:57.930Z,99588.75
2023-02-26T21:38:03.202Z,99593.09
2023-02-26T21:43:10.879Z,99592.75
2023-02-26T21:48:15.816Z,99597.59
2023-02-26T21:53:20.909Z,99587.75
2023-02-26T21:58:28.577Z,99591.59
2023-02-26T22:03:34.109Z,99595.00
2023-02-26T22:08:40.324Z,99600.84
2023-02-26T22:13:48.783Z,99611.09
2023-02-26T22:18:54.548Z,99607.06
2023-02-26T22:24:03.189Z,99608.31
2023-02-26T22:29:10.744Z,99615.91
2023-02-26T22:34:15.757Z,99612.84
2023-02-26T22:39:22.852Z,99615.13
2023-02-26T22:44:33.510Z,99624.72
2023-02-26T22:49:38.592Z,99620.16
2023-02-26T22:54:46.549Z,99616.72
2023-02-26T22:59:54.316Z,99620.28
2023-02-26T23:04:59.274Z,99618.28
2023-02-26T23:10:04.776Z,99626.06
2023-02-26T23:15:14.252Z,99632.28
2023-02-26T23:20:20.153Z,99624.78
2023-02-26T23:25:26.790Z,99624.13
2023-02-26T23:30:34.318Z,99626.78
2023-02-26T23:35:40.107Z,99639.44
2023-02-26T23:40:45.500Z,99639.44
2023-02-26T23:45:53.460Z,99635.41
2023-02-26T23:50:59.051Z,99641.31
2023-02-26T23:56:03.996Z,99648.44
